createdAt,value
2018-09-28T00:01:17.659Z,99.90
2018-09-28T00:03:46.171Z,99.90
2018-09-28T00:11:10.306Z,99.90
2018-09-28T00:13:38.855Z,99.90
2018-09-28T00:16:08.238Z,99.90
2018-09-28T00:18:37.986Z,99.90
2018-09-28T00:21:06.840Z,99.90
2018-09-28T00:23:35.470Z,99.90
2018-09-28T00:26:04.134Z,99.90
2018-09-28T00:28:32.581Z,99.90
2018-09-28T00:31:01.055Z,99.90
2018-09-28T00:33:31.412Z,99.90
2018-09-28T00:36:00.030Z,99.90
2018-09-28T00:38:28.506Z,99.90
2018-09-28T00:40:57.265Z,99.90
2018-09-28T00:43:25.823Z,99.90
2018-09-28T00:45:54.372Z,99.90
2018-09-28T00:48:22.915Z,99.90
2018-09-28T00:50:52.227Z,99.90
2018-09-28T00:53:20.706Z,99.90
2018-09-28T00:55:49.214Z,99.90
2018-09-28T00:58:17.747Z,99.90
2018-09-28T01:00:46.262Z,99.90
2018-09-28T01:08:13.961Z,99.90
2018-09-28T01:10:42.458Z,99.90
2018-09-28T01:13:10.954Z,99.90
2018-09-28T01:15:39.451Z,99.90
2018-09-28T01:18:07.910Z,99.90
2018-09-28T01:20:36.444Z,99.90
2018-09-28T01:23:04.969Z,99.90
2018-09-28T01:25:33.479Z,99.90
2018-09-28T01:28:01.950Z,99.90
2018-09-28T01:30:31.299Z,99.90
2018-09-28T01:32:59.797Z,99.90
2018-09-28T01:35:29.166Z,99.90
2018-09-28T01:37:57.662Z,99.90
2018-09-28T01:40:26.155Z,99.90
2018-09-28T01:42:54.627Z,99.90
2018-09-28T01:45:23.162Z,99.90
2018-09-28T01:47:51.686Z,99.90
2018-09-28T01:50:20.214Z,99.90
2018-09-28T01:52:48.734Z,99.90
2018-09-28T01:55:17.470Z,99.90
2018-09-28T01:57:45.933Z,99.90
2018-09-28T02:05:12.074Z,99.90
2018-09-28T02:07:40.616Z,99.90
2018-09-28T02:10:09.122Z,99.90
2018-09-28T02:12:38.476Z,99.90
2018-09-28T02:15:06.899Z,99.90
2018-09-28T02:17:35.438Z,99.90
2018-09-28T02:20:04.638Z,99.90
2018-09-28T02:22:33.378Z,99.90
2018-09-28T02:25:01.869Z,99.90
2018-09-28T02:27:30.370Z,99.90
2018-09-28T02:29:59.003Z,99.90
2018-09-28T02:32:27.558Z,99.90
2018-09-28T02:34:56.407Z,99.90
2018-09-28T02:37:25.662Z,99.90
2018-09-28T02:39:54.143Z,99.90
2018-09-28T02:42:22.672Z,99.90
2018-09-28T02:44:51.161Z,99.90
2018-09-28T02:47:19.654Z,99.90
2018-09-28T02:49:48.154Z,99.90
2018-09-28T02:52:17.463Z,99.90
2018-09-28T02:54:45.941Z,99.90
2018-09-28T03:02:21.198Z,99.90
2018-09-28T03:04:49.735Z,99.90
2018-09-28T03:07:18.215Z,99.90
2018-09-28T03:09:47.432Z,99.90
2018-09-28T03:17:09.047Z,99.90
2018-09-28T03:19:37.664Z,99.90
2018-09-28T03:22:06.206Z,99.90
2018-09-28T03:24:34.986Z,99.90
2018-09-28T03:27:03.563Z,99.90
2018-09-28T03:29:32.094Z,99.90
2018-09-28T03:32:00.617Z,99.90
2018-09-28T03:34:30.085Z,99.90
2018-09-28T03:36:58.566Z,99.90
2018-09-28T03:39:27.718Z,99.90
2018-09-28T03:41:56.209Z,99.90
2018-09-28T03:44:24.689Z,99.90
2018-09-28T03:46:53.606Z,99.90
2018-09-28T03:49:22.089Z,99.90
2018-09-28T03:51:50.561Z,99.90
2018-09-28T03:54:19.052Z,99.90
2018-09-28T03:56:47.525Z,99.90
2018-09-28T03:59:17.334Z,99.90
2018-09-28T04:01:45.857Z,99.90
2018-09-28T04:09:14.017Z,99.90
2018-09-28T04:11:42.506Z,99.90
2018-09-28T04:14:10.999Z,99.90
2018-09-28T04:16:39.526Z,99.90
2018-09-28T04:19:08.026Z,99.90
2018-09-28T04:21:36.546Z,99.90
2018-09-28T04:24:05.202Z,99.90
2018-09-28T04:26:33.725Z,99.90
2018-09-28T04:29:02.257Z,99.90
2018-09-28T04:31:31.109Z,99.90
2018-09-28T04:33:59.662Z,99.90
2018-09-28T04:36:28.229Z,99.90
2018-09-28T04:38:56.806Z,99.90
2018-09-28T04:41:25.918Z,99.90
2018-09-28T04:43:54.442Z,99.90
2018-09-28T04:46:23.260Z,99.90
2018-09-28T04:48:52.194Z,99.90
2018-09-28T04:51:20.983Z,99.90
2018-09-28T04:53:50.662Z,99.90
2018-09-28T04:56:19.145Z,99.90
2018-09-28T04:58:47.755Z,99.90
2018-09-28T05:06:11.242Z,99.90
2018-09-28T05:08:39.763Z,99.90
2018-09-28T05:11:08.270Z,99.90
2018-09-28T05:13:37.248Z,99.90
2018-09-28T05:16:05.739Z,99.90
2018-09-28T05:18:34.445Z,99.90
2018-09-28T05:21:03.130Z,99.90
2018-09-28T05:23:31.670Z,99.90
2018-09-28T05:26:00.155Z,99.90
2018-09-28T05:28:28.662Z,99.90
2018-09-28T05:30:57.179Z,99.90
2018-09-28T05:33:25.727Z,99.90
2018-09-28T05:35:54.308Z,99.90
2018-09-28T05:38:22.827Z,99.90
2018-09-28T05:40:51.638Z,99.90
2018-09-28T05:43:20.966Z,99.90
2018-09-28T05:45:49.478Z,99.90
2018-09-28T05:48:17.954Z,99.90
2018-09-28T05:50:46.454Z,99.90
2018-09-28T05:58:16.702Z,99.90
2018-09-28T06:00:50.474Z,99.90
2018-09-28T06:03:20.332Z,99.90
2018-09-28T06:05:54.080Z,99.90
2018-09-28T06:08:22.638Z,99.90
2018-09-28T06:10:51.120Z,99.90
2018-09-28T06:13:20.994Z,99.90
2018-09-28T06:15:50.138Z,99.90
2018-09-28T06:18:18.654Z,99.90
2018-09-28T06:20:49.463Z,99.90
2018-09-28T06:23:17.993Z,99.90
2018-09-28T06:25:47.559Z,99.90
2018-09-28T06:28:17.414Z,99.90
2018-09-28T06:30:45.921Z,99.90
2018-09-28T06:43:09.323Z,99.90
2018-09-28T06:45:38.970Z,99.90
2018-09-28T06:48:07.593Z,99.90
2018-09-28T06:50:36.066Z,99.90
2018-09-28T06:53:04.598Z,99.90
2018-09-28T06:55:33.102Z,99.90
2018-09-28T06:58:01.641Z,99.90
2018-09-28T07:00:30.137Z,99.90
2018-09-28T07:02:58.712Z,99.90
2018-09-28T07:05:27.359Z,99.90
2018-09-28T07:07:56.126Z,99.90
2018-09-28T07:10:24.601Z,99.90
2018-09-28T07:12:53.375Z,99.90
2018-09-28T07:15:21.900Z,99.90
2018-09-28T07:17:50.535Z,99.90
2018-09-28T07:20:19.056Z,97.10
2018-09-28T07:22:47.685Z,94.20
2018-09-28T07:30:11.878Z,85.50
2018-09-28T07:32:40.397Z,79.60
2018-09-28T07:35:08.954Z,71.10
2018-09-28T07:37:37.474Z,66.40
2018-09-28T07:40:06.018Z,65.90
2018-09-28T07:42:34.530Z,63.40
2018-09-28T07:45:03.086Z,59.50
2018-09-28T07:47:33.432Z,55.90
2018-09-28T07:50:01.934Z,54.60
2018-09-28T07:52:30.562Z,54.10
2018-09-28T07:54:59.080Z,54.70
2018-09-28T07:57:27.588Z,51.90
2018-09-28T07:59:56.104Z,51.20
2018-09-28T08:02:24.590Z,49.40
2018-09-28T08:04:53.100Z,50.40
2018-09-28T08:07:21.650Z,48.30
2018-09-28T08:09:50.273Z,47.00
2018-09-28T08:12:18.762Z,46.40
2018-09-28T08:14:48.078Z,43.70
2018-09-28T08:17:17.386Z,43.90
2018-09-28T08:19:45.914Z,45.40
2018-09-28T08:22:15.612Z,45.70
2018-09-28T08:24:44.341Z,46.10
2018-09-28T08:27:12.710Z,45.30
2018-09-28T08:29:41.255Z,45.40
2018-09-28T08:34:38.231Z,40.00
2018-09-28T08:37:07.113Z,41.80
2018-09-28T08:39:35.606Z,42.50
2018-09-28T08:42:04.214Z,40.10
2018-09-28T08:44:32.793Z,38.90
2018-09-28T08:47:01.295Z,36.80
2018-09-28T08:49:30.670Z,38.00
2018-09-28T08:52:00.127Z,36.70
2018-09-28T08:54:28.613Z,37.10
2018-09-28T08:56:57.262Z,36.60
2018-09-28T08:59:26.692Z,34.70
2018-09-28T09:01:55.191Z,34.70
2018-09-28T09:04:23.735Z,36.40
2018-09-28T09:06:52.291Z,35.10
2018-09-28T09:09:20.780Z,35.80
2018-09-28T09:11:49.263Z,34.30
2018-09-28T09:14:17.768Z,33.90
2018-09-28T09:16:46.300Z,32.80
2018-09-28T09:24:17.555Z,30.60
2018-09-28T09:26:46.139Z,30.60
2018-09-28T09:34:15.625Z,30.70
2018-09-28T09:36:44.127Z,32.50
2018-09-28T09:39:13.127Z,32.70
2018-09-28T09:41:42.078Z,32.70
2018-09-28T09:44:10.608Z,31.80
2018-09-28T09:46:39.394Z,31.00
2018-09-28T09:49:07.942Z,30.60
2018-09-28T09:51:37.071Z,31.10
2018-09-28T09:54:05.565Z,31.50
2018-09-28T09:56:34.073Z,33.60
2018-09-28T09:59:02.582Z,33.30
2018-09-28T10:03:42.919Z,33.00
2018-09-28T10:06:11.389Z,33.60
2018-09-28T10:08:39.865Z,35.00
2018-09-28T10:11:08.365Z,37.40
2018-09-28T10:13:36.831Z,38.20
2018-09-28T10:16:05.308Z,39.60
2018-09-28T10:18:33.816Z,41.70
2018-09-28T10:21:02.289Z,42.80
2018-09-28T10:23:30.778Z,43.80
2018-09-28T10:25:59.743Z,45.30
2018-09-28T10:28:28.314Z,46.00
2018-09-28T10:30:56.805Z,47.00
2018-09-28T10:33:25.360Z,48.70
2018-09-28T10:35:53.869Z,48.00
2018-09-28T10:38:22.377Z,48.80
2018-09-28T10:40:50.945Z,50.50
2018-09-28T10:43:19.971Z,52.40
2018-09-28T10:45:48.474Z,52.30
2018-09-28T10:48:18.216Z,52.90
2018-09-28T10:50:46.757Z,53.10
2018-09-28T10:58:12.021Z,51.30
2018-09-28T11:00:40.509Z,51.80
2018-09-28T11:03:09.084Z,52.40
2018-09-28T11:05:37.714Z,52.00
2018-09-28T11:08:06.232Z,52.40
2018-09-28T11:10:41.177Z,52.80
2018-09-28T11:13:09.626Z,53.70
2018-09-28T11:15:38.632Z,53.40
2018-09-28T11:18:07.089Z,52.90
2018-09-28T11:20:35.564Z,53.60
2018-09-28T11:23:04.026Z,53.30
2018-09-28T11:25:33.206Z,53.80
2018-09-28T11:28:01.715Z,54.90
2018-09-28T11:30:30.282Z,55.80
2018-09-28T11:32:58.827Z,55.80
2018-09-28T11:35:27.544Z,54.90
2018-09-28T11:37:56.095Z,55.30
2018-09-28T11:40:24.898Z,55.30
2018-09-28T11:42:53.378Z,54.80
2018-09-28T11:45:21.993Z,54.70
2018-09-28T11:47:51.166Z,55.40
2018-09-28T11:50:19.637Z,54.80
2018-09-28T11:52:48.147Z,55.60
2018-09-28T11:55:18.483Z,54.50
2018-09-28T11:57:47.008Z,55.40
2018-09-28T12:05:15.931Z,55.40
2018-09-28T12:07:44.414Z,56.80
2018-09-28T12:10:12.997Z,57.00
2018-09-28T12:12:41.600Z,56.60
2018-09-28T12:15:10.071Z,56.40
2018-09-28T12:17:38.596Z,56.60
2018-09-28T12:20:08.331Z,56.50
2018-09-28T12:22:36.959Z,56.30
2018-09-28T12:25:05.772Z,56.70
2018-09-28T12:27:35.210Z,56.50
2018-09-28T12:30:03.720Z,56.90
2018-09-28T12:32:32.217Z,57.10
2018-09-28T12:35:01.854Z,56.60
2018-09-28T12:37:30.475Z,56.00
2018-09-28T12:39:59.007Z,56.50
2018-09-28T12:42:27.654Z,56.40
2018-09-28T12:44:56.163Z,56.10
2018-09-28T12:47:24.650Z,56.40
2018-09-28T12:49:53.475Z,56.00
2018-09-28T12:52:22.026Z,56.50
2018-09-28T12:54:52.456Z,56.80
2018-09-28T12:57:21.863Z,56.50
2018-09-28T12:59:50.390Z,56.30
2018-09-28T13:02:18.999Z,57.30
2018-09-28T13:04:47.549Z,57.90
2018-09-28T13:07:17.447Z,57.00
2018-09-28T13:09:46.083Z,57.80
2018-09-28T13:17:15.022Z,58.20
2018-09-28T13:19:43.626Z,57.90
2018-09-28T13:22:12.183Z,57.70
2018-09-28T13:24:40.849Z,58.40
2018-09-28T13:27:09.439Z,58.40
2018-09-28T13:29:40.690Z,58.00
2018-09-28T13:32:09.514Z,58.00
2018-09-28T13:34:38.621Z,58.20
2018-09-28T13:37:07.394Z,57.60
2018-09-28T13:39:36.506Z,58.10
2018-09-28T13:42:05.015Z,58.30
2018-09-28T13:44:33.543Z,57.40
2018-09-28T13:47:02.231Z,57.90
2018-09-28T13:49:30.823Z,58.30
2018-09-28T13:51:59.324Z,58.70
2018-09-28T13:54:27.996Z,58.80
2018-09-28T13:56:56.446Z,58.10
2018-09-28T13:59:25.907Z,58.10
2018-09-28T14:01:54.524Z,59.00
2018-09-28T14:04:23.095Z,58.90
2018-09-28T14:06:51.708Z,59.10
2018-09-28T14:09:20.286Z,58.60
2018-09-28T14:11:48.799Z,58.20
2018-09-28T14:14:17.481Z,58.30
2018-09-28T14:16:46.107Z,58.70
2018-09-28T14:24:10.694Z,58.40
2018-09-28T14:26:39.175Z,58.60
2018-09-28T14:29:07.769Z,58.70
2018-09-28T14:31:36.267Z,59.30
2018-09-28T14:34:04.807Z,58.70
2018-09-28T14:36:33.323Z,58.90
2018-09-28T14:39:01.896Z,58.90
2018-09-28T14:41:30.403Z,59.30
2018-09-28T14:43:58.913Z,59.80
2018-09-28T14:46:27.581Z,59.10
2018-09-28T14:48:56.270Z,58.50
2018-09-28T14:51:24.585Z,59.10
2018-09-28T14:53:53.079Z,59.30
2018-09-28T14:56:22.359Z,59.00
2018-09-28T14:58:50.878Z,58.30
2018-09-28T15:01:20.376Z,58.20
2018-09-28T15:03:48.838Z,58.60
2018-09-28T15:06:17.722Z,57.40
2018-09-28T15:08:46.348Z,57.90
2018-09-28T15:16:14.961Z,59.20
2018-09-28T15:18:43.490Z,56.90
2018-09-28T15:21:12.115Z,57.20
2018-09-28T15:23:40.696Z,57.80
2018-09-28T15:26:09.218Z,58.60
2018-09-28T15:28:37.827Z,59.00
2018-09-28T15:31:06.621Z,61.00
2018-09-28T15:33:35.178Z,60.50
2018-09-28T15:36:03.695Z,61.40
2018-09-28T15:38:32.896Z,59.80
2018-09-28T15:41:01.407Z,59.40
2018-09-28T15:43:29.893Z,59.40
2018-09-28T15:45:58.401Z,60.80
2018-09-28T15:48:26.892Z,61.40
2018-09-28T15:50:55.435Z,61.80
2018-09-28T15:53:24.038Z,61.20
2018-09-28T15:55:52.635Z,61.80
2018-09-28T15:58:21.151Z,61.50
2018-09-28T16:00:49.992Z,61.90
2018-09-28T16:03:18.963Z,62.10
2018-09-28T16:05:47.529Z,62.60
2018-09-28T16:13:09.313Z,63.80
2018-09-28T16:15:37.810Z,63.70
2018-09-28T16:18:06.327Z,64.00
2018-09-28T16:20:34.838Z,64.50
2018-09-28T16:23:03.386Z,65.90
2018-09-28T16:25:31.894Z,64.30
2018-09-28T16:28:00.444Z,64.90
2018-09-28T16:30:28.921Z,65.20
2018-09-28T16:32:58.406Z,66.20
2018-09-28T16:35:26.969Z,66.60
2018-09-28T16:37:55.474Z,66.60
2018-09-28T16:40:24.005Z,68.40
2018-09-28T16:42:52.568Z,68.30
2018-09-28T16:45:21.070Z,68.20
2018-09-28T16:47:49.556Z,69.10
2018-09-28T16:50:18.069Z,70.10
2018-09-28T16:52:46.578Z,70.40
2018-09-28T16:57:27.346Z,70.00
2018-09-28T16:59:55.889Z,70.90
2018-09-28T17:02:24.403Z,71.00
2018-09-28T17:04:53.828Z,71.20
2018-09-28T17:07:22.322Z,71.80
2018-09-28T17:09:50.791Z,73.20
2018-09-28T17:12:19.545Z,73.50
2018-09-28T17:14:48.084Z,71.50
2018-09-28T17:17:17.419Z,72.50
2018-09-28T17:19:45.974Z,72.70
2018-09-28T17:27:14.329Z,74.20
2018-09-28T17:29:42.860Z,72.50
2018-09-28T17:32:11.411Z,72.30
2018-09-28T17:34:40.119Z,71.90
2018-09-28T17:37:08.759Z,72.90
2018-09-28T17:39:37.392Z,72.80
2018-09-28T17:42:06.596Z,72.20
2018-09-28T17:44:35.137Z,73.30
2018-09-28T17:47:03.602Z,74.80
2018-09-28T17:49:32.119Z,73.70
2018-09-28T17:52:00.626Z,74.20
2018-09-28T17:54:29.694Z,75.30
2018-09-28T17:56:58.226Z,73.30
2018-09-28T17:59:26.796Z,73.30
2018-09-28T18:01:55.307Z,73.70
2018-09-28T18:04:24.196Z,73.60
2018-09-28T18:06:53.571Z,73.90
2018-09-28T18:09:22.072Z,74.20
2018-09-28T18:11:50.588Z,76.00
2018-09-28T18:14:19.827Z,74.10
2018-09-28T18:16:48.310Z,73.40
2018-09-28T18:19:17.451Z,73.20
2018-09-28T18:21:45.975Z,74.40
2018-09-28T18:29:13.372Z,75.10
2018-09-28T18:31:42.023Z,76.00
2018-09-28T18:34:10.921Z,76.60
2018-09-28T18:36:39.450Z,77.40
2018-09-28T18:39:08.932Z,77.30
2018-09-28T18:41:37.649Z,77.30
2018-09-28T18:44:06.270Z,77.60
2018-09-28T18:46:35.407Z,78.40
2018-09-28T18:49:03.921Z,79.10
2018-09-28T18:51:32.461Z,78.90
2018-09-28T18:54:01.894Z,79.00
2018-09-28T18:56:30.383Z,79.50
2018-09-28T18:58:58.906Z,78.50
2018-09-28T19:01:27.407Z,79.80
2018-09-28T19:03:55.939Z,79.20
2018-09-28T19:06:24.478Z,79.80
2018-09-28T19:08:54.050Z,79.80
2018-09-28T19:11:22.582Z,79.90
2018-09-28T19:13:51.343Z,80.70
2018-09-28T19:16:19.908Z,81.80
2018-09-28T19:18:48.562Z,81.60
2018-09-28T19:21:17.545Z,80.80
2018-09-28T19:23:46.069Z,81.90
2018-09-28T19:31:11.919Z,80.50
2018-09-28T19:33:40.427Z,81.50
2018-09-28T19:36:08.938Z,81.60
2018-09-28T19:38:37.562Z,82.00
2018-09-28T19:41:06.219Z,82.60
2018-09-28T19:43:34.878Z,82.80
2018-09-28T19:46:04.350Z,82.20
2018-09-28T19:48:34.074Z,82.60
2018-09-28T19:51:02.655Z,82.70
2018-09-28T19:53:31.259Z,82.50
2018-09-28T19:55:59.758Z,83.40
2018-09-28T19:58:28.286Z,84.00
2018-09-28T20:00:56.839Z,83.70
2018-09-28T20:03:25.359Z,83.50
2018-09-28T20:05:54.424Z,83.60
2018-09-28T20:08:23.063Z,84.10
2018-09-28T20:10:52.814Z,85.90
2018-09-28T20:13:21.539Z,87.30
2018-09-28T20:15:50.708Z,89.20
2018-09-28T20:18:19.606Z,90.30
2018-09-28T20:20:48.232Z,91.10
2018-09-28T20:23:18.846Z,91.60
2018-09-28T20:25:47.346Z,92.10
2018-09-28T20:33:09.240Z,93.20
2018-09-28T20:35:38.012Z,94.60
2018-09-28T20:38:06.802Z,95.40
2018-09-28T20:40:36.108Z,96.00
2018-09-28T20:43:04.728Z,96.70
2018-09-28T20:45:34.659Z,97.40
2018-09-28T20:48:03.199Z,98.10
2018-09-28T20:50:31.740Z,98.60
2018-09-28T20:53:00.349Z,99.00
2018-09-28T20:55:29.112Z,99.50
2018-09-28T20:57:57.593Z,99.70
2018-09-28T21:00:26.432Z,99.90
2018-09-28T21:02:54.995Z,99.90
2018-09-28T21:05:23.632Z,99.90
2018-09-28T21:07:52.241Z,99.90
2018-09-28T21:10:20.755Z,99.90
2018-09-28T21:12:50.001Z,99.90
2018-09-28T21:15:18.521Z,99.90
2018-09-28T21:17:47.594Z,99.90
2018-09-28T21:20:17.482Z,99.90
2018-09-28T21:22:45.982Z,99.90
2018-09-28T21:30:10.234Z,99.90
2018-09-28T21:32:38.766Z,99.90
2018-09-28T21:35:07.316Z,99.90
2018-09-28T21:37:35.892Z,99.90
2018-09-28T21:40:04.462Z,99.90
2018-09-28T21:42:32.929Z,99.90
2018-09-28T21:45:01.486Z,99.90
2018-09-28T21:47:30.493Z,99.90
2018-09-28T21:49:58.981Z,99.90
2018-09-28T21:52:27.519Z,99.90
2018-09-28T21:54:56.036Z,99.90
2018-09-28T21:57:24.546Z,99.90
2018-09-28T21:59:53.112Z,99.90
2018-09-28T22:02:21.648Z,99.90
2018-09-28T22:04:50.256Z,99.90
2018-09-28T22:07:18.685Z,99.90
2018-09-28T22:09:47.159Z,99.90
2018-09-28T22:12:17.435Z,99.90
2018-09-28T22:14:46.539Z,99.90
2018-09-28T22:22:15.653Z,99.90
2018-09-28T22:24:44.137Z,99.90
2018-09-28T22:27:12.630Z,99.90
2018-09-28T22:29:41.149Z,99.90
2018-09-28T22:32:09.644Z,99.90
2018-09-28T22:34:38.599Z,99.90
2018-09-28T22:37:07.157Z,99.90
2018-09-28T22:39:35.687Z,99.90
2018-09-28T22:42:04.187Z,99.90
2018-09-28T22:44:33.222Z,99.90
2018-09-28T22:47:01.723Z,99.90
2018-09-28T22:49:30.186Z,99.90
2018-09-28T22:51:58.728Z,99.90
2018-09-28T22:54:27.259Z,99.90
2018-09-28T22:56:55.782Z,99.90
2018-09-28T22:59:24.307Z,99.90
2018-09-28T23:01:52.801Z,99.90
2018-09-28T23:04:21.286Z,99.90
2018-09-28T23:06:50.169Z,99.90
2018-09-28T23:09:18.644Z,99.90
2018-09-28T23:11:47.134Z,99.90
2018-09-28T23:14:17.419Z,99.90
2018-09-28T23:16:46.686Z,99.90
2018-09-28T23:24:14.814Z,99.90
2018-09-28T23:26:43.792Z,99.90
2018-09-28T23:29:12.505Z,99.90
2018-09-28T23:31:41.205Z,99.90
2018-09-28T23:34:09.981Z,99.90
2018-09-28T23:36:38.656Z,99.90
2018-09-28T23:39:09.032Z,99.90
2018-09-28T23:41:37.967Z,99.90
2018-09-28T23:44:07.048Z,99.90
2018-09-28T23:46:35.615Z,99.90
2018-09-28T23:49:04.469Z,99.90
2018-09-28T23:51:33.054Z,99.90
2018-09-28T23:54:01.651Z,99.90
2018-09-28T23:56:30.145Z,99.90
2018-09-28T23:58:58.673Z,99.90
